Terminal Aerodrome Forecast
Issued by NWS Bismarck, ND

Home | Current Version | Previous Version | Text Only | Print | Product List | Glossary Off
Versions: 1 2 3 4 5 6 7 8 9 10 11 12 13 14 15 16 17 18 19 20 21 22 23 24 25 26 27 28 29 30 31

643
FTUS43 KBIS 012048 AAC
TAFBIS
TAF AMD
KBIS 012048Z 0121/0218 01004KT P6SM -FZDZSN OVC010
     FM012300 32005KT P6SM OVC010
     FM020400 00000KT P6SM OVC008
     FM020900 VRB03KT P6SM OVC004=

USA.gov is the U.S. government's official web portal to all federal, state and local government web resources and services.